Kirkcudbright, United Kingdom
Current Conditions -  °F | °C
As of 12:20 PM on Sunday 23 Nov 2014 (Local Time) from EGPK Reporting Station
Few Clouds Few Clouds  
Wind Chill: 44°   Ceiling: Unl
Heat Index: 48°   Visibility: 6mi
Dew Point: 39°   Wind: 10mph
Humidity: 71%   Direction: 260°W
Pressure: 30.03"   Gusts: NA
Location:  54.84°N, 4.05°W
Report Text: EGPK 231220Z 26009KT 9999 FEW020 FEW035CB 09/04 Q1017
Loading
Personal Weather Stations






























Interactive Weather Map New forecast layout! Learn more

10-Day Weather Forecast

Advertisements
Track Severe Weather on mobile